sensor_id;sensor_type;location;lat;lon;timestamp;temperature;humidity
43346;DHT22;28937;51.160;4.146;2022-12-13T00:00:11;6.70;80.60
43346;DHT22;28937;51.160;4.146;2022-12-13T00:02:40;6.70;80.60
43346;DHT22;28937;51.160;4.146;2022-12-13T00:05:06;6.80;80.40
43346;DHT22;28937;51.160;4.146;2022-12-13T00:07:33;6.70;80.40
43346;DHT22;28937;51.160;4.146;2022-12-13T00:09:59;6.70;80.50
43346;DHT22;28937;51.160;4.146;2022-12-13T00:12:24;6.70;80.50
43346;DHT22;28937;51.160;4.146;2022-12-13T00:14:50;6.60;80.40
43346;DHT22;28937;51.160;4.146;2022-12-13T00:17:16;6.70;80.40
43346;DHT22;28937;51.160;4.146;2022-12-13T00:19:41;6.70;80.50
43346;DHT22;28937;51.160;4.146;2022-12-13T00:22:07;6.70;80.50
43346;DHT22;28937;51.160;4.146;2022-12-13T00:24:32;6.70;80.50
43346;DHT22;28937;51.160;4.146;2022-12-13T00:26:58;6.70;80.30
43346;DHT22;28937;51.160;4.146;2022-12-13T00:29:23;6.70;80.30
43346;DHT22;28937;51.160;4.146;2022-12-13T00:31:49;6.70;80.40
43346;DHT22;28937;51.160;4.146;2022-12-13T00:34:15;6.60;80.60
43346;DHT22;28937;51.160;4.146;2022-12-13T00:36:41;6.60;80.40
43346;DHT22;28937;51.160;4.146;2022-12-13T00:39:06;6.60;80.60
43346;DHT22;28937;51.160;4.146;2022-12-13T00:41:34;6.50;80.70
43346;DHT22;28937;51.160;4.146;2022-12-13T00:44:01;6.40;80.80
43346;DHT22;28937;51.160;4.146;2022-12-13T00:46:27;6.40;80.80
43346;DHT22;28937;51.160;4.146;2022-12-13T00:48:55;6.50;80.60
43346;DHT22;28937;51.160;4.146;2022-12-13T00:51:22;6.50;80.80
43346;DHT22;28937;51.160;4.146;2022-12-13T00:53:48;6.40;80.90
43346;DHT22;28937;51.160;4.146;2022-12-13T00:56:16;6.40;81.60
43346;DHT22;28937;51.160;4.146;2022-12-13T00:58:42;6.40;81.00
43346;DHT22;28937;51.160;4.146;2022-12-13T01:01:11;6.30;80.90
43346;DHT22;28937;51.160;4.146;2022-12-13T01:03:37;6.30;81.00
43346;DHT22;28937;51.160;4.146;2022-12-13T01:06:12;6.40;81.20
43346;DHT22;28937;51.160;4.146;2022-12-13T01:08:37;6.40;80.90
43346;DHT22;28937;51.160;4.146;2022-12-13T01:11:06;6.40;80.80
43346;DHT22;28937;51.160;4.146;2022-12-13T01:13:32;6.40;80.90
43346;DHT22;28937;51.160;4.146;2022-12-13T01:16:01;6.40;81.00
43346;DHT22;28937;51.160;4.146;2022-12-13T01:18:27;6.30;80.90
43346;DHT22;28937;51.160;4.146;2022-12-13T01:20:58;6.30;81.00
43346;DHT22;28937;51.160;4.146;2022-12-13T01:23:24;6.30;80.90
43346;DHT22;28937;51.160;4.146;2022-12-13T01:25:50;6.30;81.00
43346;DHT22;28937;51.160;4.146;2022-12-13T01:28:16;6.30;81.00
43346;DHT22;28937;51.160;4.146;2022-12-13T01:30:41;6.30;81.00
43346;DHT22;28937;51.160;4.146;2022-12-13T01:33:07;6.30;81.10
43346;DHT22;28937;51.160;4.146;2022-12-13T01:35:35;6.20;81.00
43346;DHT22;28937;51.160;4.146;2022-12-13T01:38:01;6.10;81.40
43346;DHT22;28937;51.160;4.146;2022-12-13T01:40:26;6.20;81.20
43346;DHT22;28937;51.160;4.146;2022-12-13T01:42:52;6.20;81.20
43346;DHT22;28937;51.160;4.146;2022-12-13T01:45:24;6.20;80.90
43346;DHT22;28937;51.160;4.146;2022-12-13T01:47:58;6.20;81.30
43346;DHT22;28937;51.160;4.146;2022-12-13T01:50:31;6.10;81.30
43346;DHT22;28937;51.160;4.146;2022-12-13T01:52:58;6.10;81.20
43346;DHT22;28937;51.160;4.146;2022-12-13T01:55:27;6.20;80.90
43346;DHT22;28937;51.160;4.146;2022-12-13T01:57:54;6.10;81.00
43346;DHT22;28937;51.160;4.146;2022-12-13T02:00:23;6.10;81.00
43346;DHT22;28937;51.160;4.146;2022-12-13T02:02:49;6.00;81.20
43346;DHT22;28937;51.160;4.146;2022-12-13T02:05:26;6.00;81.50
43346;DHT22;28937;51.160;4.146;2022-12-13T02:07:53;6.00;81.50
43346;DHT22;28937;51.160;4.146;2022-12-13T02:10:20;6.00;81.50
43346;DHT22;28937;51.160;4.146;2022-12-13T02:12:45;6.00;81.50
43346;DHT22;28937;51.160;4.146;2022-12-13T02:15:16;6.00;81.40
43346;DHT22;28937;51.160;4.146;2022-12-13T02:20:47;5.90;81.50
43346;DHT22;28937;51.160;4.146;2022-12-13T02:32:27;5.90;81.40
43346;DHT22;28937;51.160;4.146;2022-12-13T02:35:08;5.90;81.40
43346;DHT22;28937;51.160;4.146;2022-12-13T02:38:06;5.90;81.30
43346;DHT22;28937;51.160;4.146;2022-12-13T02:40:43;5.90;81.30
43346;DHT22;28937;51.160;4.146;2022-12-13T02:43:25;5.80;81.40
43346;DHT22;28937;51.160;4.146;2022-12-13T02:45:58;5.80;81.40
43346;DHT22;28937;51.160;4.146;2022-12-13T02:48:29;5.80;81.30
43346;DHT22;28937;51.160;4.146;2022-12-13T02:50:58;5.70;81.40
43346;DHT22;28937;51.160;4.146;2022-12-13T02:53:24;5.70;81.40
43346;DHT22;28937;51.160;4.146;2022-12-13T02:55:51;5.80;81.20
43346;DHT22;28937;51.160;4.146;2022-12-13T02:58:21;5.70;81.30
43346;DHT22;28937;51.160;4.146;2022-12-13T03:00:58;5.70;81.20
43346;DHT22;28937;51.160;4.146;2022-12-13T03:03:38;5.70;81.30
43346;DHT22;28937;51.160;4.146;2022-12-13T03:12:36;5.70;81.10
43346;DHT22;28937;51.160;4.146;2022-12-13T03:17:46;5.60;81.00
43346;DHT22;28937;51.160;4.146;2022-12-13T03:20:21;5.60;81.10
43346;DHT22;28937;51.160;4.146;2022-12-13T03:22:47;5.60;81.20
43346;DHT22;28937;51.160;4.146;2022-12-13T03:25:14;5.60;81.10
43346;DHT22;28937;51.160;4.146;2022-12-13T03:27:39;5.60;81.00
43346;DHT22;28937;51.160;4.146;2022-12-13T03:30:06;5.70;80.80
43346;DHT22;28937;51.160;4.146;2022-12-13T03:32:31;5.60;80.70
43346;DHT22;28937;51.160;4.146;2022-12-13T03:34:57;5.60;80.70
43346;DHT22;28937;51.160;4.146;2022-12-13T03:37:22;5.60;80.80
43346;DHT22;28937;51.160;4.146;2022-12-13T03:39:48;5.50;80.70
43346;DHT22;28937;51.160;4.146;2022-12-13T03:42:14;5.60;80.70
43346;DHT22;28937;51.160;4.146;2022-12-13T03:44:39;5.50;80.70
43346;DHT22;28937;51.160;4.146;2022-12-13T03:47:05;5.60;80.60
43346;DHT22;28937;51.160;4.146;2022-12-13T03:49:31;5.50;80.50
43346;DHT22;28937;51.160;4.146;2022-12-13T03:51:56;5.60;80.60
43346;DHT22;28937;51.160;4.146;2022-12-13T03:54:22;5.50;80.50
43346;DHT22;28937;51.160;4.146;2022-12-13T03:56:47;5.60;80.50
43346;DHT22;28937;51.160;4.146;2022-12-13T03:59:13;5.50;80.40
43346;DHT22;28937;51.160;4.146;2022-12-13T04:01:38;5.50;80.40
43346;DHT22;28937;51.160;4.146;2022-12-13T04:04:04;5.50;80.40
43346;DHT22;28937;51.160;4.146;2022-12-13T04:06:29;5.60;80.40
43346;DHT22;28937;51.160;4.146;2022-12-13T04:08:55;5.50;80.40
43346;DHT22;28937;51.160;4.146;2022-12-13T04:11:20;5.50;80.50
43346;DHT22;28937;51.160;4.146;2022-12-13T04:14:04;5.50;80.50
43346;DHT22;28937;51.160;4.146;2022-12-13T04:16:30;5.50;80.40
43346;DHT22;28937;51.160;4.146;2022-12-13T04:18:55;5.40;80.40
43346;DHT22;28937;51.160;4.146;2022-12-13T04:21:21;5.40;80.50
43346;DHT22;28937;51.160;4.146;2022-12-13T04:23:46;5.50;80.30
43346;DHT22;28937;51.160;4.146;2022-12-13T04:26:12;5.50;80.50
43346;DHT22;28937;51.160;4.146;2022-12-13T04:28:38;5.40;80.60
43346;DHT22;28937;51.160;4.146;2022-12-13T04:31:03;5.40;80.30
43346;DHT22;28937;51.160;4.146;2022-12-13T04:33:29;5.50;80.20
43346;DHT22;28937;51.160;4.146;2022-12-13T04:35:57;5.40;80.10
43346;DHT22;28937;51.160;4.146;2022-12-13T04:38:22;5.40;80.10
43346;DHT22;28937;51.160;4.146;2022-12-13T04:40:48;5.30;80.30
43346;DHT22;28937;51.160;4.146;2022-12-13T04:43:13;5.30;80.40
43346;DHT22;28937;51.160;4.146;2022-12-13T04:45:39;5.20;80.40
43346;DHT22;28937;51.160;4.146;2022-12-13T04:48:05;5.30;80.40
43346;DHT22;28937;51.160;4.146;2022-12-13T04:50:30;5.30;80.30
43346;DHT22;28937;51.160;4.146;2022-12-13T04:52:56;5.30;80.20
43346;DHT22;28937;51.160;4.146;2022-12-13T04:55:21;5.30;80.10
43346;DHT22;28937;51.160;4.146;2022-12-13T04:57:47;5.20;80.30
43346;DHT22;28937;51.160;4.146;2022-12-13T05:00:13;5.20;80.00
43346;DHT22;28937;51.160;4.146;2022-12-13T05:02:39;5.20;80.00
43346;DHT22;28937;51.160;4.146;2022-12-13T05:05:09;5.30;80.00
43346;DHT22;28937;51.160;4.146;2022-12-13T05:07:35;5.30;79.80
43346;DHT22;28937;51.160;4.146;2022-12-13T05:10:01;5.20;79.90
43346;DHT22;28937;51.160;4.146;2022-12-13T05:12:26;5.20;79.90
43346;DHT22;28937;51.160;4.146;2022-12-13T05:14:52;5.20;80.00
43346;DHT22;28937;51.160;4.146;2022-12-13T05:17:19;5.20;79.90
43346;DHT22;28937;51.160;4.146;2022-12-13T05:19:44;5.20;79.90
43346;DHT22;28937;51.160;4.146;2022-12-13T05:22:10;5.20;79.80
43346;DHT22;28937;51.160;4.146;2022-12-13T05:24:44;5.30;79.60
43346;DHT22;28937;51.160;4.146;2022-12-13T05:27:10;5.20;79.50
43346;DHT22;28937;51.160;4.146;2022-12-13T05:29:37;5.10;79.70
43346;DHT22;28937;51.160;4.146;2022-12-13T05:32:03;5.10;79.70
43346;DHT22;28937;51.160;4.146;2022-12-13T05:34:28;5.10;79.80
43346;DHT22;28937;51.160;4.146;2022-12-13T05:36:54;5.20;79.70
43346;DHT22;28937;51.160;4.146;2022-12-13T05:39:20;5.10;79.50
43346;DHT22;28937;51.160;4.146;2022-12-13T05:41:45;5.10;79.70
43346;DHT22;28937;51.160;4.146;2022-12-13T05:44:11;5.10;79.50
43346;DHT22;28937;51.160;4.146;2022-12-13T05:46:37;5.10;79.40
43346;DHT22;28937;51.160;4.146;2022-12-13T05:49:03;5.00;79.50
43346;DHT22;28937;51.160;4.146;2022-12-13T05:51:28;5.20;79.20
43346;DHT22;28937;51.160;4.146;2022-12-13T05:53:54;5.10;79.00
43346;DHT22;28937;51.160;4.146;2022-12-13T05:56:20;5.10;79.10
43346;DHT22;28937;51.160;4.146;2022-12-13T05:58:45;3.80;77.50
43346;DHT22;28937;51.160;4.146;2022-12-13T06:01:13;2.20;81.60
43346;DHT22;28937;51.160;4.146;2022-12-13T06:03:40;1.20;86.20
43346;DHT22;28937;51.160;4.146;2022-12-13T06:06:07;0.70;88.30
43346;DHT22;28937;51.160;4.146;2022-12-13T06:08:33;0.40;90.10
43346;DHT22;28937;51.160;4.146;2022-12-13T06:11:00;0.20;90.50
43346;DHT22;28937;51.160;4.146;2022-12-13T06:13:26;0.10;91.10
43346;DHT22;28937;51.160;4.146;2022-12-13T06:15:53;0.10;91.20
43346;DHT22;28937;51.160;4.146;2022-12-13T06:18:18;-0.10;91.40
43346;DHT22;28937;51.160;4.146;2022-12-13T06:20:44;-0.10;92.10
43346;DHT22;28937;51.160;4.146;2022-12-13T06:23:11;-0.20;91.60
43346;DHT22;28937;51.160;4.146;2022-12-13T06:25:37;0.40;93.50
43346;DHT22;28937;51.160;4.146;2022-12-13T06:28:03;1.50;92.10
43346;DHT22;28937;51.160;4.146;2022-12-13T06:30:29;2.30;90.70
43346;DHT22;28937;51.160;4.146;2022-12-13T06:32:55;2.80;89.40
43346;DHT22;28937;51.160;4.146;2022-12-13T06:35:20;3.20;87.90
43346;DHT22;28937;51.160;4.146;2022-12-13T06:37:50;3.50;86.80
43346;DHT22;28937;51.160;4.146;2022-12-13T06:40:17;3.80;85.60
43346;DHT22;28937;51.160;4.146;2022-12-13T06:42:42;4.10;84.40
43346;DHT22;28937;51.160;4.146;2022-12-13T06:45:08;4.10;84.10
43346;DHT22;28937;51.160;4.146;2022-12-13T06:47:34;4.30;83.80
43346;DHT22;28937;51.160;4.146;2022-12-13T06:49:59;4.40;83.50
43346;DHT22;28937;51.160;4.146;2022-12-13T06:52:25;4.50;83.10
43346;DHT22;28937;51.160;4.146;2022-12-13T06:54:50;4.70;82.50
43346;DHT22;28937;51.160;4.146;2022-12-13T06:57:16;4.50;83.30
43346;DHT22;28937;51.160;4.146;2022-12-13T06:59:42;4.90;82.90
43346;DHT22;28937;51.160;4.146;2022-12-13T07:02:08;4.80;81.40
43346;DHT22;28937;51.160;4.146;2022-12-13T07:04:33;4.70;81.10
43346;DHT22;28937;51.160;4.146;2022-12-13T07:06:59;4.70;80.90
43346;DHT22;28937;51.160;4.146;2022-12-13T07:09:24;5.10;80.50
43346;DHT22;28937;51.160;4.146;2022-12-13T07:11:50;5.00;79.70
43346;DHT22;28937;51.160;4.146;2022-12-13T07:14:15;5.10;79.80
43346;DHT22;28937;51.160;4.146;2022-12-13T07:16:42;5.00;79.10
43346;DHT22;28937;51.160;4.146;2022-12-13T07:19:08;4.80;79.90
43346;DHT22;28937;51.160;4.146;2022-12-13T07:21:34;4.90;80.20
43346;DHT22;28937;51.160;4.146;2022-12-13T07:24:00;4.80;80.10
43346;DHT22;28937;51.160;4.146;2022-12-13T07:26:26;5.00;80.10
43346;DHT22;28937;51.160;4.146;2022-12-13T07:28:52;5.00;80.10
43346;DHT22;28937;51.160;4.146;2022-12-13T07:31:17;5.10;80.20
43346;DHT22;28937;51.160;4.146;2022-12-13T07:33:43;5.10;79.20
43346;DHT22;28937;51.160;4.146;2022-12-13T07:36:15;4.90;80.10
43346;DHT22;28937;51.160;4.146;2022-12-13T07:38:41;4.90;80.80
43346;DHT22;28937;51.160;4.146;2022-12-13T07:41:07;4.90;81.30
43346;DHT22;28937;51.160;4.146;2022-12-13T07:43:33;5.10;80.80
43346;DHT22;28937;51.160;4.146;2022-12-13T07:45:59;5.00;80.30
43346;DHT22;28937;51.160;4.146;2022-12-13T07:48:26;4.90;81.10
43346;DHT22;28937;51.160;4.146;2022-12-13T07:50:52;4.80;81.70
43346;DHT22;28937;51.160;4.146;2022-12-13T07:53:18;5.00;81.30
43346;DHT22;28937;51.160;4.146;2022-12-13T07:55:44;5.00;81.00
43346;DHT22;28937;51.160;4.146;2022-12-13T07:58:11;5.10;80.70
43346;DHT22;28937;51.160;4.146;2022-12-13T08:00:39;5.00;80.50
43346;DHT22;28937;51.160;4.146;2022-12-13T08:03:05;5.20;80.10
43346;DHT22;28937;51.160;4.146;2022-12-13T08:05:32;5.20;80.00
43346;DHT22;28937;51.160;4.146;2022-12-13T08:07:59;5.00;80.40
43346;DHT22;28937;51.160;4.146;2022-12-13T08:10:25;4.90;80.80
43346;DHT22;28937;51.160;4.146;2022-12-13T08:12:51;5.00;81.00
43346;DHT22;28937;51.160;4.146;2022-12-13T08:15:16;5.10;80.10
43346;DHT22;28937;51.160;4.146;2022-12-13T08:17:42;5.00;80.40
43346;DHT22;28937;51.160;4.146;2022-12-13T08:20:08;5.20;79.40
43346;DHT22;28937;51.160;4.146;2022-12-13T08:22:34;5.20;79.40
43346;DHT22;28937;51.160;4.146;2022-12-13T08:24:59;5.20;79.30
43346;DHT22;28937;51.160;4.146;2022-12-13T08:27:25;5.20;79.60
43346;DHT22;28937;51.160;4.146;2022-12-13T08:29:51;5.20;79.70
43346;DHT22;28937;51.160;4.146;2022-12-13T08:32:17;5.20;79.70
43346;DHT22;28937;51.160;4.146;2022-12-13T08:34:43;5.30;79.30
43346;DHT22;28937;51.160;4.146;2022-12-13T08:37:10;5.40;79.30
43346;DHT22;28937;51.160;4.146;2022-12-13T08:39:37;5.30;79.40
43346;DHT22;28937;51.160;4.146;2022-12-13T08:42:13;5.30;79.60
43346;DHT22;28937;51.160;4.146;2022-12-13T08:44:40;5.30;79.50
43346;DHT22;28937;51.160;4.146;2022-12-13T08:47:05;5.30;79.40
43346;DHT22;28937;51.160;4.146;2022-12-13T08:49:31;5.20;79.60
43346;DHT22;28937;51.160;4.146;2022-12-13T08:51:57;5.30;79.10
43346;DHT22;28937;51.160;4.146;2022-12-13T08:54:22;5.20;79.40
43346;DHT22;28937;51.160;4.146;2022-12-13T08:56:48;5.20;80.00
43346;DHT22;28937;51.160;4.146;2022-12-13T08:59:13;5.20;79.80
43346;DHT22;28937;51.160;4.146;2022-12-13T09:01:39;5.30;79.80
43346;DHT22;28937;51.160;4.146;2022-12-13T09:04:04;5.30;79.80
43346;DHT22;28937;51.160;4.146;2022-12-13T09:06:30;5.40;79.40
43346;DHT22;28937;51.160;4.146;2022-12-13T09:08:56;5.40;79.40
43346;DHT22;28937;51.160;4.146;2022-12-13T09:11:21;5.50;79.00
43346;DHT22;28937;51.160;4.146;2022-12-13T09:13:47;5.50;79.10
43346;DHT22;28937;51.160;4.146;2022-12-13T09:16:16;5.50;79.00
43346;DHT22;28937;51.160;4.146;2022-12-13T09:18:43;5.60;79.00
43346;DHT22;28937;51.160;4.146;2022-12-13T09:21:11;5.60;78.10
43346;DHT22;28937;51.160;4.146;2022-12-13T09:23:37;5.60;78.20
43346;DHT22;28937;51.160;4.146;2022-12-13T09:26:04;5.80;77.90
43346;DHT22;28937;51.160;4.146;2022-12-13T09:28:30;5.70;77.80
43346;DHT22;28937;51.160;4.146;2022-12-13T09:30:56;5.60;78.00
43346;DHT22;28937;51.160;4.146;2022-12-13T09:33:22;5.60;78.10
43346;DHT22;28937;51.160;4.146;2022-12-13T09:35:48;5.60;78.20
43346;DHT22;28937;51.160;4.146;2022-12-13T09:38:14;5.60;78.20
43346;DHT22;28937;51.160;4.146;2022-12-13T09:40:42;5.60;78.20
43346;DHT22;28937;51.160;4.146;2022-12-13T09:43:11;5.60;78.10
43346;DHT22;28937;51.160;4.146;2022-12-13T09:45:39;5.50;78.80
43346;DHT22;28937;51.160;4.146;2022-12-13T09:48:07;5.70;78.10
43346;DHT22;28937;51.160;4.146;2022-12-13T09:50:34;5.40;78.70
43346;DHT22;28937;51.160;4.146;2022-12-13T09:53:02;5.60;78.50
43346;DHT22;28937;51.160;4.146;2022-12-13T09:55:37;5.60;78.40
43346;DHT22;28937;51.160;4.146;2022-12-13T09:58:19;5.70;78.40
43346;DHT22;28937;51.160;4.146;2022-12-13T10:00:48;5.60;78.20
43346;DHT22;28937;51.160;4.146;2022-12-13T10:03:18;5.80;79.20
43346;DHT22;28937;51.160;4.146;2022-12-13T10:05:59;5.80;78.70
43346;DHT22;28937;51.160;4.146;2022-12-13T10:08:52;5.80;78.00
43346;DHT22;28937;51.160;4.146;2022-12-13T10:11:20;5.80;78.00
43346;DHT22;28937;51.160;4.146;2022-12-13T10:14:16;5.70;78.50
43346;DHT22;28937;51.160;4.146;2022-12-13T10:16:47;5.70;78.90
43346;DHT22;28937;51.160;4.146;2022-12-13T10:19:20;5.70;79.10
43346;DHT22;28937;51.160;4.146;2022-12-13T10:21:47;5.80;79.10
43346;DHT22;28937;51.160;4.146;2022-12-13T10:26:41;5.90;78.40
43346;DHT22;28937;51.160;4.146;2022-12-13T10:29:07;6.00;78.20
43346;DHT22;28937;51.160;4.146;2022-12-13T10:31:47;6.00;77.80
43346;DHT22;28937;51.160;4.146;2022-12-13T10:34:26;6.10;77.80
43346;DHT22;28937;51.160;4.146;2022-12-13T10:36:52;6.10;77.50
43346;DHT22;28937;51.160;4.146;2022-12-13T10:39:38;6.20;77.40
43346;DHT22;28937;51.160;4.146;2022-12-13T10:42:11;6.10;78.20
43346;DHT22;28937;51.160;4.146;2022-12-13T10:44:37;6.10;77.90
43346;DHT22;28937;51.160;4.146;2022-12-13T10:49:48;6.20;78.30
43346;DHT22;28937;51.160;4.146;2022-12-13T10:52:39;6.30;78.00
43346;DHT22;28937;51.160;4.146;2022-12-13T10:57:53;6.40;77.70
43346;DHT22;28937;51.160;4.146;2022-12-13T11:00:49;6.60;76.40
43346;DHT22;28937;51.160;4.146;2022-12-13T11:03:30;6.50;77.90
43346;DHT22;28937;51.160;4.146;2022-12-13T11:06:13;6.30;77.60
43346;DHT22;28937;51.160;4.146;2022-12-13T11:08:39;6.50;77.80
43346;DHT22;28937;51.160;4.146;2022-12-13T11:11:07;6.70;75.80
43346;DHT22;28937;51.160;4.146;2022-12-13T11:13:51;6.70;75.60
43346;DHT22;28937;51.160;4.146;2022-12-13T11:18:58;6.70;76.10
43346;DHT22;28937;51.160;4.146;2022-12-13T11:21:30;6.60;77.00
43346;DHT22;28937;51.160;4.146;2022-12-13T11:24:00;6.50;76.50
43346;DHT22;28937;51.160;4.146;2022-12-13T11:26:27;6.30;77.10
43346;DHT22;28937;51.160;4.146;2022-12-13T11:31:52;6.30;77.50
43346;DHT22;28937;51.160;4.146;2022-12-13T11:42:13;6.40;77.80
43346;DHT22;28937;51.160;4.146;2022-12-13T11:44:44;6.50;76.10
43346;DHT22;28937;51.160;4.146;2022-12-13T11:47:21;6.60;75.90
43346;DHT22;28937;51.160;4.146;2022-12-13T11:49:49;6.60;76.00
43346;DHT22;28937;51.160;4.146;2022-12-13T11:52:20;6.70;77.00
43346;DHT22;28937;51.160;4.146;2022-12-13T11:59:56;6.50;75.80
43346;DHT22;28937;51.160;4.146;2022-12-13T12:02:33;6.80;75.50
43346;DHT22;28937;51.160;4.146;2022-12-13T12:05:13;6.60;74.50
43346;DHT22;28937;51.160;4.146;2022-12-13T12:07:46;6.50;75.50
43346;DHT22;28937;51.160;4.146;2022-12-13T12:12:42;6.80;77.30
43346;DHT22;28937;51.160;4.146;2022-12-13T12:15:24;7.00;75.60
43346;DHT22;28937;51.160;4.146;2022-12-13T12:17:50;6.90;75.50
43346;DHT22;28937;51.160;4.146;2022-12-13T12:20:43;6.80;75.10
43346;DHT22;28937;51.160;4.146;2022-12-13T12:24:07;6.70;75.70
43346;DHT22;28937;51.160;4.146;2022-12-13T12:26:10;6.70;76.10
43346;DHT22;28937;51.160;4.146;2022-12-13T12:37:06;6.90;77.40
43346;DHT22;28937;51.160;4.146;2022-12-13T12:39:42;7.00;77.50
43346;DHT22;28937;51.160;4.146;2022-12-13T12:48:14;7.20;76.70
43346;DHT22;28937;51.160;4.146;2022-12-13T12:51:25;7.40;75.60
43346;DHT22;28937;51.160;4.146;2022-12-13T12:53:44;7.30;75.50
43346;DHT22;28937;51.160;4.146;2022-12-13T12:56:15;7.30;75.90
43346;DHT22;28937;51.160;4.146;2022-12-13T13:04:11;7.50;75.40
43346;DHT22;28937;51.160;4.146;2022-12-13T13:06:52;7.30;84.00
43346;DHT22;28937;51.160;4.146;2022-12-13T13:09:19;7.90;84.70
43346;DHT22;28937;51.160;4.146;2022-12-13T13:11:46;8.40;83.10
43346;DHT22;28937;51.160;4.146;2022-12-13T13:14:33;8.60;80.70
43346;DHT22;28937;51.160;4.146;2022-12-13T13:19:44;9.20;81.80
43346;DHT22;28937;51.160;4.146;2022-12-13T13:22:39;9.20;81.00
43346;DHT22;28937;51.160;4.146;2022-12-13T13:27:34;9.70;80.30
43346;DHT22;28937;51.160;4.146;2022-12-13T13:30:23;9.70;79.50
43346;DHT22;28937;51.160;4.146;2022-12-13T13:32:57;9.70;77.70
43346;DHT22;28937;51.160;4.146;2022-12-13T13:35:46;9.80;79.00
43346;DHT22;28937;51.160;4.146;2022-12-13T13:40:47;9.90;78.40
43346;DHT22;28937;51.160;4.146;2022-12-13T13:43:15;10.10;79.00
43346;DHT22;28937;51.160;4.146;2022-12-13T14:13:40;10.20;76.90
43346;DHT22;28937;51.160;4.146;2022-12-13T14:30:15;10.10;76.30
43346;DHT22;28937;51.160;4.146;2022-12-13T14:32:42;10.10;75.10
43346;DHT22;28937;51.160;4.146;2022-12-13T14:35:28;10.00;74.30
43346;DHT22;28937;51.160;4.146;2022-12-13T14:38:00;9.80;73.80
43346;DHT22;28937;51.160;4.146;2022-12-13T14:42:55;9.80;73.40
43346;DHT22;28937;51.160;4.146;2022-12-13T14:47:53;10.40;74.10
43346;DHT22;28937;51.160;4.146;2022-12-13T14:50:19;10.50;74.30
43346;DHT22;28937;51.160;4.146;2022-12-13T14:52:46;10.30;66.90
43346;DHT22;28937;51.160;4.146;2022-12-13T14:57:55;9.40;67.90
43346;DHT22;28937;51.160;4.146;2022-12-13T15:02:53;9.10;68.90
43346;DHT22;28937;51.160;4.146;2022-12-13T15:05:43;9.10;68.50
43346;DHT22;28937;51.160;4.146;2022-12-13T15:08:09;8.50;69.60
43346;DHT22;28937;51.160;4.146;2022-12-13T15:13:01;8.40;70.70
43346;DHT22;28937;51.160;4.146;2022-12-13T15:15:37;8.40;71.10
43346;DHT22;28937;51.160;4.146;2022-12-13T15:18:12;8.30;71.10
43346;DHT22;28937;51.160;4.146;2022-12-13T15:20:40;8.50;70.80
43346;DHT22;28937;51.160;4.146;2022-12-13T15:23:13;8.60;69.90
43346;DHT22;28937;51.160;4.146;2022-12-13T15:25:40;8.40;70.20
43346;DHT22;28937;51.160;4.146;2022-12-13T15:28:10;8.50;70.00
43346;DHT22;28937;51.160;4.146;2022-12-13T15:30:37;8.40;70.70
43346;DHT22;28937;51.160;4.146;2022-12-13T15:35:42;8.30;71.10
43346;DHT22;28937;51.160;4.146;2022-12-13T15:38:17;8.30;71.00
43346;DHT22;28937;51.160;4.146;2022-12-13T15:40:46;8.30;70.80
43346;DHT22;28937;51.160;4.146;2022-12-13T15:43:18;8.20;70.90
43346;DHT22;28937;51.160;4.146;2022-12-13T15:45:46;8.20;70.80
43346;DHT22;28937;51.160;4.146;2022-12-13T15:48:36;8.30;70.90
43346;DHT22;28937;51.160;4.146;2022-12-13T15:51:12;8.20;71.40
43346;DHT22;28937;51.160;4.146;2022-12-13T15:53:38;8.20;71.50
43346;DHT22;28937;51.160;4.146;2022-12-13T15:56:31;8.30;71.40
43346;DHT22;28937;51.160;4.146;2022-12-13T15:58:57;8.30;71.40
43346;DHT22;28937;51.160;4.146;2022-12-13T16:01:27;8.30;71.30
43346;DHT22;28937;51.160;4.146;2022-12-13T16:03:53;8.10;71.90
43346;DHT22;28937;51.160;4.146;2022-12-13T16:06:21;8.20;71.60
43346;DHT22;28937;51.160;4.146;2022-12-13T16:08:53;8.00;71.90
43346;DHT22;28937;51.160;4.146;2022-12-13T16:11:46;8.10;72.00
43346;DHT22;28937;51.160;4.146;2022-12-13T16:14:37;8.30;71.30
43346;DHT22;28937;51.160;4.146;2022-12-13T16:17:23;8.30;71.60
43346;DHT22;28937;51.160;4.146;2022-12-13T16:19:54;8.20;71.50
43346;DHT22;28937;51.160;4.146;2022-12-13T16:22:20;8.40;71.10
43346;DHT22;28937;51.160;4.146;2022-12-13T16:24:48;8.40;70.80
43346;DHT22;28937;51.160;4.146;2022-12-13T16:27:14;8.30;71.20
43346;DHT22;28937;51.160;4.146;2022-12-13T16:29:40;8.20;72.10
43346;DHT22;28937;51.160;4.146;2022-12-13T16:32:06;8.00;72.60
43346;DHT22;28937;51.160;4.146;2022-12-13T16:34:31;8.00;72.80
43346;DHT22;28937;51.160;4.146;2022-12-13T16:36:57;8.20;72.60
43346;DHT22;28937;51.160;4.146;2022-12-13T16:39:25;8.30;72.60
43346;DHT22;28937;51.160;4.146;2022-12-13T16:41:51;8.10;73.10
43346;DHT22;28937;51.160;4.146;2022-12-13T16:44:29;8.10;73.40
43346;DHT22;28937;51.160;4.146;2022-12-13T16:46:56;8.10;73.20
43346;DHT22;28937;51.160;4.146;2022-12-13T16:49:27;8.10;73.40
43346;DHT22;28937;51.160;4.146;2022-12-13T16:51:53;8.00;74.00
43346;DHT22;28937;51.160;4.146;2022-12-13T16:54:21;8.30;72.90
43346;DHT22;28937;51.160;4.146;2022-12-13T16:56:48;8.20;73.10
43346;DHT22;28937;51.160;4.146;2022-12-13T16:59:16;8.20;72.80
43346;DHT22;28937;51.160;4.146;2022-12-13T17:01:42;8.10;72.40
43346;DHT22;28937;51.160;4.146;2022-12-13T17:04:13;8.10;73.20
43346;DHT22;28937;51.160;4.146;2022-12-13T17:06:39;7.90;74.00
43346;DHT22;28937;51.160;4.146;2022-12-13T17:09:05;8.20;72.80
43346;DHT22;28937;51.160;4.146;2022-12-13T17:11:31;7.90;74.10
43346;DHT22;28937;51.160;4.146;2022-12-13T17:13:58;7.70;74.60
43346;DHT22;28937;51.160;4.146;2022-12-13T17:16:24;7.90;74.40
43346;DHT22;28937;51.160;4.146;2022-12-13T17:18:50;7.90;74.80
43346;DHT22;28937;51.160;4.146;2022-12-13T17:21:16;7.90;75.90
43346;DHT22;28937;51.160;4.146;2022-12-13T17:23:42;7.80;77.60
43346;DHT22;28937;51.160;4.146;2022-12-13T17:26:10;8.20;74.70
43346;DHT22;28937;51.160;4.146;2022-12-13T17:28:36;8.10;74.80
43346;DHT22;28937;51.160;4.146;2022-12-13T17:31:07;7.80;76.30
43346;DHT22;28937;51.160;4.146;2022-12-13T17:33:33;7.70;77.20
43346;DHT22;28937;51.160;4.146;2022-12-13T17:36:03;7.80;76.10
43346;DHT22;28937;51.160;4.146;2022-12-13T17:38:29;8.00;75.30
43346;DHT22;28937;51.160;4.146;2022-12-13T17:40:54;8.20;74.90
43346;DHT22;28937;51.160;4.146;2022-12-13T17:43:20;7.80;77.00
43346;DHT22;28937;51.160;4.146;2022-12-13T17:45:46;7.90;77.00
43346;DHT22;28937;51.160;4.146;2022-12-13T17:48:12;8.00;76.90
43346;DHT22;28937;51.160;4.146;2022-12-13T17:50:38;8.00;76.80
43346;DHT22;28937;51.160;4.146;2022-12-13T17:53:04;8.10;76.00
43346;DHT22;28937;51.160;4.146;2022-12-13T17:55:30;8.10;75.70
43346;DHT22;28937;51.160;4.146;2022-12-13T17:57:56;8.30;74.20
43346;DHT22;28937;51.160;4.146;2022-12-13T18:00:22;8.10;73.90
43346;DHT22;28937;51.160;4.146;2022-12-13T18:02:48;8.00;74.50
43346;DHT22;28937;51.160;4.146;2022-12-13T18:05:13;8.10;74.20
43346;DHT22;28937;51.160;4.146;2022-12-13T18:07:39;8.00;74.60
43346;DHT22;28937;51.160;4.146;2022-12-13T18:10:05;8.00;74.40